Time;durP1;ratioP1;P1;durP2;ratioP2;P2;SDS_P1;SDS_P2;PMS_P1;PMS_P2;Temp;Humidity;BMP_temperature;BMP_pressure;BME280_temperature;BME280_humidity;BME280_pressure;Samples;Min_cycle;Max_cycle;Signal;HPM_P1;HPM_P2
2021/12/17 00:01:54;;;;;;;33.17;28.53;;;;;;;10.68;63.40;100006.34;8385949;28;20444;-83
2021/12/17 00:06:06;;;;;;;34.60;28.53;;;;;;;10.65;63.33;100013.31;8386644;28;20404;-84
2021/12/17 00:10:12;;;;;;;33.57;28.07;;;;;;;10.65;63.00;100003.78;8386585;28;20242;-84
2021/12/17 00:14:25;;;;;;;24.90;22.27;;;;;;;10.53;63.34;100001.38;8385923;28;20223;-83
2021/12/17 00:18:36;;;;;;;24.33;21.73;;;;;;;10.49;62.93;100010.03;8386445;28;20235;-83
2021/12/17 00:40:32;;;;;;;23.03;20.50;;;;;;;10.44;62.09;99988.50;8385541;28;20242;-83
2021/12/17 00:49:01;;;;;;;23.03;20.07;;;;;;;10.27;61.77;99980.91;8385829;28;20243;-81
2021/12/17 00:53:05;;;;;;;21.57;19.23;;;;;;;10.28;61.22;99986.06;8385253;28;20429;-82
2021/12/17 00:57:13;;;;;;;22.20;19.80;;;;;;;10.17;61.42;99972.38;8384439;28;20250;-82
2021/12/17 01:01:20;;;;;;;24.87;21.70;;;;;;;10.12;61.76;99956.88;8384913;28;20238;-81
2021/12/17 01:05:26;;;;;;;26.00;23.20;;;;;;;10.12;61.61;99963.78;8385407;28;20235;-81
2021/12/17 01:09:29;;;;;;;22.53;20.23;;;;;;;10.11;61.74;99960.34;8384795;28;20246;-81
2021/12/17 01:13:33;;;;;;;22.70;19.63;;;;;;;9.98;62.15;99967.38;8384691;28;20233;-81
2021/12/17 01:17:40;;;;;;;20.67;18.10;;;;;;;10.01;62.20;99958.72;8384932;28;20235;-81
2021/12/17 01:21:58;;;;;;;20.07;17.97;;;;;;;10.01;62.75;99960.44;8384763;28;20232;-81
2021/12/17 01:43:42;;;;;;;86.47;28.33;;;;;;;10.05;63.71;99962.13;8348700;28;20234;-80
2021/12/17 01:47:45;;;;;;;58.47;28.03;;;;;;;10.10;64.44;99955.19;8385936;28;20204;-81
2021/12/17 01:56:29;;;;;;;42.03;26.50;;;;;;;9.89;64.85;99953.69;8383195;28;20242;-81
2021/12/17 02:00:37;;;;;;;59.43;24.97;;;;;;;9.92;64.78;99951.91;8377646;28;20246;-81
2021/12/17 02:04:40;;;;;;;74.43;25.20;;;;;;;9.87;65.13;99961.44;8383087;28;20231;-81
2021/12/17 02:08:45;;;;;;;37.73;25.03;;;;;;;9.92;65.12;99959.69;8382225;28;20407;-81
2021/12/17 02:19:25;;;;;;;35.20;23.07;;;;;;;9.78;65.26;99959.78;8382643;28;20238;-81
2021/12/17 02:30:47;;;;;;;35.83;23.03;;;;;;;9.91;64.60;99947.59;8381681;28;20234;-81
2021/12/17 02:35:04;;;;;;;41.90;24.30;;;;;;;9.77;64.49;99945.16;8382092;28;20238;-81
2021/12/17 02:39:31;;;;;;;60.30;23.40;;;;;;;9.76;63.94;99947.75;8382279;28;20236;-81
2021/12/17 02:47:59;;;;;;;35.83;20.60;;;;;;;9.86;63.44;99944.22;8381936;28;20398;-81
2021/12/17 02:52:05;;;;;;;76.50;23.17;;;;;;;9.65;64.06;99941.81;8381784;28;20239;-80
2021/12/17 02:56:10;;;;;;;28.33;20.67;;;;;;;9.73;64.37;99940.88;8382211;28;20239;-81
2021/12/17 03:00:14;;;;;;;51.47;21.07;;;;;;;9.75;63.64;99927.94;8381129;28;20239;-81
2021/12/17 03:04:19;;;;;;;27.90;18.87;;;;;;;9.69;63.54;99925.38;8381350;28;20237;-80
2021/12/17 03:08:22;;;;;;;45.30;20.23;;;;;;;9.72;63.17;99917.59;8380902;28;20236;-81
2021/12/17 03:12:32;;;;;;;42.37;20.47;;;;;;;9.73;63.15;99920.19;8381285;28;20231;-81
2021/12/17 03:16:40;;;;;;;29.93;18.60;;;;;;;9.73;63.18;99922.78;8380401;28;20239;-81
2021/12/17 03:25:07;;;;;;;40.80;19.07;;;;;;;9.69;63.28;99917.63;8380698;28;20238;-81
2021/12/17 03:29:11;;;;;;;32.97;17.50;;;;;;;9.61;63.11;99911.69;8380610;28;20546;-81
2021/12/17 03:33:16;;;;;;;42.27;17.53;;;;;;;9.67;62.64;99921.97;8380282;28;20235;-81
2021/12/17 03:37:19;;;;;;;20.10;17.20;;;;;;;9.69;62.77;99925.38;8380420;28;20235;-80
2021/12/17 03:41:25;;;;;;;64.37;17.57;;;;;;;9.57;61.86;99919.47;8380521;28;20239;-81
2021/12/17 03:45:29;;;;;;;18.60;16.27;;;;;;;9.69;62.35;99915.03;8380626;28;20231;-81
2021/12/17 03:49:35;;;;;;;39.57;17.37;;;;;;;9.62;62.19;99918.59;8380732;28;20238;-81
2021/12/17 03:53:39;;;;;;;21.13;16.87;;;;;;;9.61;62.61;99938.41;8380261;28;20227;-81
2021/12/17 03:57:42;;;;;;;25.73;17.37;;;;;;;9.62;62.28;99927.19;8380499;28;20250;-80
2021/12/17 04:01:47;;;;;;;19.07;16.23;;;;;;;9.64;61.99;99922.00;8380726;28;20227;-81
2021/12/17 04:05:50;;;;;;;17.47;15.63;;;;;;;9.51;62.02;99927.28;8380491;28;20529;-81
2021/12/17 04:09:52;;;;;;;17.70;14.27;;;;;;;9.59;61.35;99928.09;8380462;28;20234;-81
2021/12/17 04:13:57;;;;;;;14.50;13.10;;;;;;;9.63;61.84;99921.13;8380195;28;20238;-80
2021/12/17 04:18:05;;;;;;;18.87;14.43;;;;;;;9.50;61.43;99909.19;8380263;28;20421;-80
2021/12/17 04:22:08;;;;;;;17.83;13.53;;;;;;;9.45;61.59;99910.97;8380611;28;20236;-81
2021/12/17 04:26:12;;;;;;;21.70;14.90;;;;;;;9.42;61.88;99918.75;8380184;28;20231;-81
2021/12/17 04:30:15;;;;;;;29.30;15.17;;;;;;;9.34;61.86;99924.84;8372066;28;20227;-80
2021/12/17 04:34:19;;;;;;;16.93;13.00;;;;;;;9.37;61.42;99932.56;8384415;28;20238;-81
2021/12/17 04:38:23;;;;;;;37.30;14.03;;;;;;;9.16;61.24;99949.09;8385697;28;20239;-80
2021/12/17 04:42:33;;;;;;;124.03;13.90;;;;;;;8.43;62.62;99949.50;8385824;28;20231;-81
2021/12/17 04:46:41;;;;;;;52.77;14.30;;;;;;;8.51;63.36;99943.47;8385519;28;20239;-81
2021/12/17 04:59:27;;;;;;;25.00;14.57;;;;;;;8.95;62.86;99951.84;8384606;28;20256;-81
2021/12/17 05:03:30;;;;;;;29.97;13.43;;;;;;;8.94;62.04;99950.13;8385226;28;20235;-81
2021/12/17 05:07:37;;;;;;;21.47;14.47;;;;;;;9.04;61.69;99958.66;8385047;28;20251;-81
2021/12/17 05:20:32;;;;;;;15.93;12.40;;;;;;;9.08;61.16;99961.22;8384413;28;20227;-80
2021/12/17 05:24:37;;;;;;;35.37;12.83;;;;;;;9.03;61.19;99973.31;8384589;28;20299;-80
2021/12/17 05:28:40;;;;;;;15.60;12.27;;;;;;;9.08;61.18;99963.81;8384089;28;20530;-80
2021/12/17 05:32:43;;;;;;;19.47;13.50;;;;;;;9.11;61.03;99962.94;8384029;28;20423;-80
2021/12/17 05:36:46;;;;;;;20.47;12.40;;;;;;;8.70;62.31;99974.34;8383869;28;20535;-80
2021/12/17 05:40:51;;;;;;;27.60;13.17;;;;;;;8.23;63.01;99964.16;8384045;28;20235;-80
2021/12/17 05:44:59;;;;;;;38.53;12.47;;;;;;;8.37;61.73;99964.09;8383247;28;20232;-80
2021/12/17 05:49:02;;;;;;;18.87;12.63;;;;;;;8.62;62.44;99971.78;8374767;28;20228;-80
2021/12/17 05:53:06;;;;;;;14.70;10.47;;;;;;;8.83;61.60;99982.91;8365903;28;20239;-80
2021/12/17 05:57:13;;;;;;;14.60;11.60;;;;;;;8.66;61.59;99972.66;8357187;28;20529;-78
2021/12/17 06:01:16;;;;;;;25.07;11.70;;;;;;;8.45;61.76;99963.25;8365699;28;20230;-80
2021/12/17 06:05:19;;;;;;;17.63;10.93;;;;;;;8.68;61.39;99968.31;8368569;28;20230;-80
2021/12/17 06:09:25;;;;;;;45.93;12.27;;;;;;;8.32;62.45;99971.03;8365696;28;20232;-80
2021/12/17 06:13:30;;;;;;;24.73;12.77;;;;;;;8.72;61.45;99973.50;8374209;28;20238;-79
2021/12/17 06:17:33;;;;;;;21.90;13.30;;;;;;;8.57;61.88;99974.41;8365017;28;20387;-79
2021/12/17 06:21:36;;;;;;;32.87;12.13;;;;;;;8.62;61.58;99974.38;8371379;28;20232;-80
2021/12/17 06:25:39;;;;;;;16.93;11.70;;;;;;;8.79;61.41;99967.41;8350271;28;20228;-79
2021/12/17 06:29:44;;;;;;;15.03;12.23;;;;;;;8.73;61.88;99959.69;8349230;28;20232;-80
2021/12/17 06:33:47;;;;;;;24.67;12.50;;;;;;;8.72;61.82;99958.00;8354432;28;20238;-80
2021/12/17 06:37:51;;;;;;;33.73;14.20;;;;;;;8.75;61.80;99954.53;8348868;28;20235;-83
2021/12/17 06:41:53;;;;;;;17.37;13.27;;;;;;;8.73;61.79;99945.94;8349007;28;20243;-79
2021/12/17 06:46:11;;;;;;;23.43;14.13;;;;;;;8.72;61.75;99947.66;8348786;28;20255;-79
2021/12/17 06:54:49;;;;;;;18.73;13.33;;;;;;;8.87;61.62;99941.56;8348660;28;20239;-80
2021/12/17 06:59:04;;;;;;;39.40;13.53;;;;;;;8.74;61.95;99955.41;8382623;28;20546;-76
2021/12/17 07:08:36;;;;;;;17.67;13.43;;;;;;;8.70;61.92;99975.22;8380103;28;20290;-79
2021/12/17 07:21:14;;;;;;;13.90;11.70;;;;;;;8.75;61.39;99963.13;8380921;28;20239;-63
2021/12/17 07:34:06;;;;;;;32.57;10.70;;;;;;;8.66;61.03;99951.97;8380748;28;20546;-63
2021/12/17 07:42:31;;;;;;;11.43;10.23;;;;;;;8.79;60.72;99956.22;8380173;28;20427;-63
2021/12/17 07:46:34;;;;;;;26.20;10.67;;;;;;;8.69;60.46;99976.06;8380619;28;20234;-63
2021/12/17 07:50:37;;;;;;;11.80;9.53;;;;;;;8.65;60.81;99981.28;8377971;28;20237;-63
2021/12/17 07:54:41;;;;;;;36.23;10.93;;;;;;;8.51;60.88;99981.31;8347405;28;20436;-63
2021/12/17 07:58:44;;;;;;;24.03;11.03;;;;;;;8.54;61.43;99986.47;8347123;28;20277;-62
2021/12/17 08:02:47;;;;;;;27.60;11.20;;;;;;;8.58;61.09;99996.78;8347166;28;20350;-63
2021/12/17 08:06:50;;;;;;;12.53;9.97;;;;;;;8.65;61.27;100007.09;8349308;28;20231;-62
2021/12/17 08:10:55;;;;;;;10.60;9.50;;;;;;;8.67;60.97;100010.53;8353763;28;20539;-62
2021/12/17 08:14:58;;;;;;;21.90;10.43;;;;;;;8.61;60.88;100014.00;8353663;28;20232;-63
2021/12/17 08:23:09;;;;;;;30.77;9.80;;;;;;;8.65;60.47;100013.13;8353496;28;20247;-62
2021/12/17 08:28:04;;;;;;;18.10;10.03;;;;;;;8.68;61.01;100013.13;8352899;28;20233;-63
2021/12/17 08:32:08;;;;;;;25.47;9.90;;;;;;;8.67;60.77;100007.94;8353110;28;20254;-62
2021/12/17 08:36:11;;;;;;;21.23;10.43;;;;;;;8.68;61.28;100010.53;8352645;28;20240;-63
2021/12/17 08:40:14;;;;;;;20.43;10.40;;;;;;;8.73;61.03;100008.78;8352279;28;20236;-64
2021/12/17 08:44:19;;;;;;;21.97;9.93;;;;;;;8.64;60.94;100019.13;8352532;28;20238;-63
2021/12/17 08:48:22;;;;;;;24.87;10.23;;;;;;;8.64;60.87;100013.13;8362029;28;20388;-78
2021/12/17 08:52:25;;;;;;;12.40;9.50;;;;;;;8.72;60.60;100038.06;8401385;28;20231;-77
2021/12/17 08:56:36;;;;;;;15.63;10.03;;;;;;;8.73;60.67;100034.59;8385618;28;20241;-78
2021/12/17 09:00:40;;;;;;;15.27;9.60;;;;;;;8.71;60.50;100027.75;8385278;28;20236;-81
2021/12/17 09:04:44;;;;;;;22.57;10.37;;;;;;;8.79;60.52;100023.38;8385211;28;20503;-78
2021/12/17 09:08:48;;;;;;;15.23;10.80;;;;;;;8.75;61.14;100040.63;8385419;28;20231;-78
2021/12/17 09:12:51;;;;;;;14.10;10.30;;;;;;;8.81;60.83;100037.16;8384895;28;20235;-78
2021/12/17 09:16:55;;;;;;;20.80;11.70;;;;;;;8.78;61.20;100029.44;8384827;28;20242;-80
2021/12/17 09:20:59;;;;;;;12.97;11.50;;;;;;;8.82;61.17;100010.47;8383392;28;20280;-82
2021/12/17 09:25:02;;;;;;;15.17;11.00;;;;;;;8.79;61.25;100025.97;8384299;28;20534;-80
2021/12/17 09:29:05;;;;;;;20.50;11.43;;;;;;;8.79;60.86;100008.75;8384195;28;20239;-82
2021/12/17 09:33:10;;;;;;;30.63;11.33;;;;;;;8.79;60.80;100020.81;8384269;28;20235;-82
2021/12/17 09:37:13;;;;;;;14.23;10.20;;;;;;;8.86;60.65;100013.91;8383531;28;20227;-76
2021/12/17 09:41:17;;;;;;;15.83;11.17;;;;;;;8.77;60.87;100009.63;8383998;28;20239;-77
2021/12/17 09:45:20;;;;;;;12.23;10.50;;;;;;;8.83;60.83;100016.50;8383531;28;20341;-79
2021/12/17 09:49:25;;;;;;;16.00;11.30;;;;;;;8.70;61.45;100013.97;8383890;28;20235;-78
2021/12/17 09:53:28;;;;;;;23.17;11.73;;;;;;;8.78;60.80;100019.09;8383620;28;20235;-75
2021/12/17 09:57:35;;;;;;;18.80;10.80;;;;;;;8.78;61.04;100007.03;8383659;28;20239;-78
2021/12/17 10:01:39;;;;;;;18.67;10.87;;;;;;;8.80;61.28;100005.31;8383427;28;20321;-80
2021/12/17 10:05:44;;;;;;;14.70;11.37;;;;;;;8.94;60.99;100023.31;8383268;28;20228;-78
2021/12/17 10:09:48;;;;;;;20.40;12.50;;;;;;;8.87;61.17;100029.41;8383419;28;20231;-79
2021/12/17 10:13:51;;;;;;;18.03;12.27;;;;;;;8.92;60.76;100019.88;8382846;28;20244;-80
2021/12/17 10:17:58;;;;;;;15.30;10.80;;;;;;;8.99;61.06;100018.16;8382608;28;20231;-78
2021/12/17 10:22:11;;;;;;;26.03;11.83;;;;;;;8.87;60.82;100015.59;8383037;28;20545;-79
2021/12/17 10:26:15;;;;;;;14.33;10.73;;;;;;;8.94;60.97;100025.91;8382734;28;20231;-79
2021/12/17 10:30:21;;;;;;;19.60;11.53;;;;;;;8.88;61.67;100038.00;8381584;28;20350;-80
2021/12/17 10:34:25;;;;;;;13.27;11.60;;;;;;;8.96;61.11;100034.50;8382175;28;20231;-81
2021/12/17 10:38:29;;;;;;;13.10;11.07;;;;;;;9.16;60.99;100030.97;8382075;28;20238;-80
2021/12/17 10:42:36;;;;;;;16.47;12.13;;;;;;;9.01;61.08;100021.56;8382222;28;20246;-79
2021/12/17 10:46:56;;;;;;;29.33;9.90;;;;;;;11.05;80.99;100024.03;8381366;28;20228;-69
2021/12/17 10:51:15;;;;;;;12.03;10.17;;;;;;;11.72;57.86;100026.50;8381378;28;20236;-78
2021/12/17 10:55:20;;;;;;;12.70;11.40;;;;;;;10.38;58.33;100020.53;8380979;28;20224;-64
2021/12/17 10:59:25;;;;;;;13.90;12.40;;;;;;;10.02;59.35;100017.38;8381051;28;20235;-63
2021/12/17 11:03:28;;;;;;;12.57;11.27;;;;;;;9.93;59.57;100012.28;8381133;28;20234;-65
2021/12/17 11:07:31;;;;;;;13.20;11.80;;;;;;;9.69;60.44;100023.69;8381211;28;20294;-64
2021/12/17 11:11:41;;;;;;;14.20;12.67;;;;;;;9.66;60.25;100014.25;8381296;28;20230;-63
2021/12/17 11:15:44;;;;;;;18.20;14.23;;;;;;;9.64;60.71;100013.41;8381198;28;20542;-63
2021/12/17 11:19:48;;;;;;;15.50;13.70;;;;;;;9.58;60.65;100010.88;8380891;28;20246;-63
2021/12/17 11:23:51;;;;;;;16.10;14.40;;;;;;;9.67;60.15;100004.75;8380675;28;20231;-63
2021/12/17 11:27:55;;;;;;;16.20;14.50;;;;;;;9.62;60.69;100009.13;8380475;28;20232;-64
2021/12/17 11:32:00;;;;;;;15.90;14.20;;;;;;;9.29;61.01;100009.34;8380763;28;20258;-64
2021/12/17 11:36:03;;;;;;;11.57;10.37;;;;;;;9.07;60.76;100000.84;8380690;28;20353;-62
2021/12/17 11:40:11;;;;;;;10.80;9.70;;;;;;;9.35;60.11;99993.78;8380399;28;20235;-62
2021/12/17 11:44:18;;;;;;;11.83;10.50;;;;;;;8.93;60.85;99985.44;8379542;28;20227;-64
2021/12/17 11:48:23;;;;;;;13.27;11.73;;;;;;;9.28;60.07;99979.19;8380492;28;20227;-63
2021/12/17 11:52:40;;;;;;;13.30;11.43;;;;;;;9.16;59.75;99971.53;8380267;28;20230;-64
2021/12/17 11:56:46;;;;;;;13.63;12.23;;;;;;;9.10;60.52;99966.38;8379942;28;20232;-64
2021/12/17 12:00:51;;;;;;;13.17;11.77;;;;;;;8.92;60.97;99963.03;8380270;28;20231;-63
2021/12/17 12:04:56;;;;;;;12.33;11.13;;;;;;;9.01;60.54;99980.22;8380356;28;20422;-63
2021/12/17 12:09:03;;;;;;;11.73;10.57;;;;;;;8.98;59.67;99981.06;8379689;28;20242;-79
2021/12/17 12:13:06;;;;;;;11.40;9.93;;;;;;;9.14;59.68;99983.59;8380164;28;20258;-79
2021/12/17 12:17:10;;;;;;;10.67;9.57;;;;;;;8.71;60.60;99992.44;8380544;28;20231;-82
2021/12/17 12:21:15;;;;;;;9.83;8.93;;;;;;;8.52;61.37;99991.63;8379264;28;20231;-80
2021/12/17 12:25:28;;;;;;;10.37;9.37;;;;;;;8.56;60.79;99982.16;8379381;28;20232;-81
2021/12/17 12:29:31;;;;;;;9.73;8.73;;;;;;;8.37;61.70;99989.94;8379562;28;20266;-79
2021/12/17 12:33:36;;;;;;;9.50;8.17;;;;;;;8.43;60.80;99980.50;8379569;28;20239;-78
2021/12/17 12:37:39;;;;;;;9.60;8.70;;;;;;;8.59;60.45;99964.09;8379642;28;20231;-80
2021/12/17 12:41:45;;;;;;;9.97;8.60;;;;;;;8.50;61.03;99956.38;8407401;28;20420;-80
2021/12/17 12:45:48;;;;;;;10.13;8.33;;;;;;;8.64;60.94;99954.56;8412689;28;20239;-76
2021/12/17 12:49:59;;;;;;;9.40;8.43;;;;;;;7.93;61.00;99941.88;8378410;28;20542;-80
2021/12/17 12:54:06;;;;;;;9.23;7.80;;;;;;;8.32;60.62;99957.25;8348583;28;20240;-78
2021/12/17 12:58:11;;;;;;;7.70;7.00;;;;;;;8.11;61.46;99960.75;8351801;28;20299;-82
2021/12/17 13:02:14;;;;;;;6.43;5.80;;;;;;;8.19;59.77;99962.47;8351813;28;20236;-81
2021/12/17 13:06:22;;;;;;;5.90;5.40;;;;;;;8.18;59.05;99965.88;8351819;28;20291;-78
2021/12/17 13:10:27;;;;;;;5.73;5.23;;;;;;;8.30;59.59;99980.50;8351832;28;20329;-80
2021/12/17 13:14:33;;;;;;;5.70;5.20;;;;;;;8.44;58.56;99979.63;8351739;28;20243;-78
2021/12/17 13:23:12;;;;;;;9.07;7.30;;;;;;;8.25;59.49;99992.56;8367412;28;20239;-77
2021/12/17 13:27:16;;;;;;;8.10;7.30;;;;;;;8.33;59.26;99988.22;8343763;28;20220;-79
2021/12/17 13:31:47;;;;;;;7.57;6.87;;;;;;;8.46;59.18;99985.66;8366246;28;20422;-79
2021/12/17 13:35:50;;;;;;;8.03;7.33;;;;;;;8.33;58.74;99983.06;8349564;28;20242;-78
2021/12/17 13:39:56;;;;;;;9.10;8.10;;;;;;;8.36;58.27;99977.91;8371663;28;20479;-81
2021/12/17 13:43:59;;;;;;;8.87;8.00;;;;;;;8.38;58.95;99967.56;8384642;28;20250;-67
2021/12/17 13:48:04;;;;;;;8.70;7.80;;;;;;;8.57;58.58;99970.97;8383850;28;20243;-67
2021/12/17 13:52:09;;;;;;;9.97;8.20;;;;;;;8.34;58.28;99969.31;8383617;28;20231;-67
2021/12/17 13:56:17;;;;;;;9.67;8.77;;;;;;;8.56;58.87;99967.50;8383284;28;20227;-67
2021/12/17 14:00:22;;;;;;;10.13;9.13;;;;;;;8.74;58.68;99970.91;8403925;28;20235;-67
2021/12/17 14:04:25;;;;;;;8.83;8.03;;;;;;;8.61;58.59;99967.50;8383341;28;20278;-67
2021/12/17 14:08:28;;;;;;;9.23;8.30;;;;;;;8.68;58.88;99969.22;8416344;28;20235;-67
2021/12/17 14:12:37;;;;;;;13.47;8.93;;;;;;;8.89;58.32;99954.44;8393072;28;20250;-67
2021/12/17 14:17:03;;;;;;;9.67;8.67;;;;;;;8.82;58.43;99943.28;8349573;28;20239;-67
2021/12/17 14:21:06;;;;;;;10.20;9.20;;;;;;;8.91;58.34;99950.13;8349690;28;20452;-66
2021/12/17 14:25:39;;;;;;;10.23;9.23;;;;;;;8.87;58.21;99945.84;8349647;28;20232;-66
2021/12/17 14:29:44;;;;;;;9.90;8.90;;;;;;;8.85;58.18;99939.81;8349209;28;20225;-70
2021/12/17 14:33:49;;;;;;;10.83;9.37;;;;;;;8.95;58.42;99937.19;8349101;28;20228;-67
2021/12/17 14:37:54;;;;;;;12.30;9.43;;;;;;;8.82;58.30;99929.53;8348944;28;20235;-66
2021/12/17 14:42:00;;;;;;;11.20;10.10;;;;;;;8.78;58.55;99945.03;8348464;28;20240;-67
2021/12/17 14:46:14;;;;;;;15.43;11.07;;;;;;;8.63;58.13;99952.00;8348966;28;20240;-67
2021/12/17 15:03:39;;;;;;;10.20;9.17;;;;;;;8.66;58.77;99955.41;8381409;28;20526;-67
2021/12/17 15:07:42;;;;;;;12.00;10.13;;;;;;;8.73;58.63;99954.53;8381264;28;20233;-79
2021/12/17 15:11:45;;;;;;;11.90;10.37;;;;;;;8.73;58.55;99957.09;8381152;28;20231;-81
2021/12/17 15:15:48;;;;;;;13.20;11.37;;;;;;;8.76;58.42;99953.66;8381210;28;20228;-80
2021/12/17 15:19:53;;;;;;;9.73;8.73;;;;;;;9.00;57.58;99937.16;8380907;28;20246;-78
2021/12/17 15:23:56;;;;;;;9.93;8.80;;;;;;;9.08;57.80;99927.63;8381161;28;20231;-77
2021/12/17 15:28:00;;;;;;;16.07;13.80;;;;;;;9.11;57.89;99939.66;8377371;28;20358;-76
2021/12/17 15:32:04;;;;;;;10.83;9.70;;;;;;;9.16;57.91;99940.50;8362996;28;20228;-77
2021/12/17 15:36:09;;;;;;;11.07;9.97;;;;;;;9.12;57.82;99939.66;8355058;28;20230;-78
2021/12/17 15:40:12;;;;;;;12.40;11.07;;;;;;;9.17;57.69;99935.28;8354401;28;20224;-78
2021/12/17 15:44:16;;;;;;;10.80;9.77;;;;;;;9.18;57.47;99926.69;8361757;28;20228;-79
2021/12/17 15:48:20;;;;;;;10.67;9.40;;;;;;;9.13;57.34;99930.16;8362714;28;20230;-79
2021/12/17 15:52:38;;;;;;;9.90;8.90;;;;;;;9.08;57.62;99939.69;8364498;28;20240;-76
2021/12/17 15:56:46;;;;;;;10.77;9.77;;;;;;;9.06;57.49;99931.94;8360893;28;20236;-77
2021/12/17 16:00:49;;;;;;;10.60;9.60;;;;;;;9.12;57.74;99947.41;8347442;28;20539;-73
2021/12/17 16:04:52;;;;;;;9.47;8.63;;;;;;;9.05;57.58;99945.72;8347209;28;20243;-74
2021/12/17 16:08:59;;;;;;;12.03;9.47;;;;;;;9.00;57.51;99947.47;8347164;28;20235;-78
2021/12/17 16:21:46;;;;;;;11.03;9.90;;;;;;;8.96;57.33;99959.56;8324638;28;20232;-77
2021/12/17 16:25:50;;;;;;;14.50;12.77;;;;;;;8.99;57.41;99963.88;8346842;28;20254;-79
2021/12/17 16:29:54;;;;;;;12.70;11.50;;;;;;;8.89;57.25;99963.06;8350393;28;20554;-77
2021/12/17 16:34:01;;;;;;;12.93;11.63;;;;;;;8.86;57.34;99960.50;8353233;28;20240;-78
2021/12/17 16:38:05;;;;;;;11.63;10.43;;;;;;;8.83;57.16;99960.50;8352926;28;20236;-75
2021/12/17 16:42:15;;;;;;;17.77;15.97;;;;;;;8.82;57.22;99956.22;8352743;28;20236;-77
2021/12/17 16:47:01;;;;;;;21.30;19.20;;;;;;;8.77;57.40;99956.22;8345146;28;20239;-78
2021/12/17 16:51:00;;;;;;;20.93;18.63;;;;;;;8.82;57.39;99947.63;8367212;28;20536;-78
2021/12/17 16:55:07;;;;;;;13.00;11.70;;;;;;;8.72;57.73;99942.50;8352613;28;20240;-78
2021/12/17 16:59:12;;;;;;;19.60;17.60;;;;;;;8.56;57.54;99946.84;8351913;28;20310;-78
2021/12/17 17:03:15;;;;;;;21.97;19.77;;;;;;;8.72;57.06;99944.19;8351450;28;20243;-75
2021/12/17 17:07:18;;;;;;;19.67;17.57;;;;;;;8.50;56.62;99953.78;8352215;28;20247;-75
2021/12/17 17:11:28;;;;;;;17.07;15.27;;;;;;;8.58;56.64;99957.19;8351817;28;20242;-76
2021/12/17 17:15:34;;;;;;;15.87;14.27;;;;;;;8.64;56.78;99972.66;8372223;28;20240;-75
2021/12/17 17:19:39;;;;;;;13.03;11.73;;;;;;;8.51;56.62;99958.94;8384311;28;20309;-76
2021/12/17 17:23:43;;;;;;;13.20;11.80;;;;;;;8.55;56.59;99954.63;8384594;28;20295;-76
2021/12/17 17:27:46;;;;;;;12.80;11.57;;;;;;;8.55;56.65;99968.41;8384523;28;20228;-76
2021/12/17 17:31:51;;;;;;;17.53;15.10;;;;;;;8.50;56.43;99971.88;8350994;28;20427;-75
2021/12/17 17:35:55;;;;;;;14.90;13.40;;;;;;;8.55;55.93;99963.22;8350913;28;20232;-76
2021/12/17 17:39:57;;;;;;;13.20;11.90;;;;;;;8.52;56.29;99960.66;8336872;28;20237;-74
2021/12/17 17:44:06;;;;;;;12.97;11.60;;;;;;;8.44;56.69;99956.41;8317507;28;20351;-74
2021/12/17 17:48:12;;;;;;;30.27;25.13;;;;;;;8.39;56.53;99949.47;8348123;28;20522;-74
2021/12/17 17:52:15;;;;;;;15.03;13.43;;;;;;;8.27;56.29;99966.75;8350233;28;20238;-74
2021/12/17 17:56:19;;;;;;;11.90;10.80;;;;;;;8.14;56.22;99965.91;8355351;28;20227;-76
2021/12/17 18:00:23;;;;;;;13.60;12.30;;;;;;;8.08;55.85;99958.19;8367144;28;20299;-76
2021/12/17 18:04:27;;;;;;;27.50;24.60;;;;;;;7.97;55.50;99959.06;8357325;28;20538;-78
2021/12/17 18:08:31;;;;;;;20.07;17.93;;;;;;;7.93;56.02;99954.78;8346495;28;20239;-83
2021/12/17 18:12:34;;;;;;;32.93;23.53;;;;;;;7.83;56.28;99956.50;8354299;28;20237;-80
2021/12/17 18:16:37;;;;;;;39.47;29.80;;;;;;;7.77;55.93;99964.25;8382986;28;20232;-80
2021/12/17 18:20:41;;;;;;;25.63;22.23;;;;;;;7.79;56.27;99957.38;8382736;28;20227;-81
2021/12/17 18:24:44;;;;;;;30.23;26.97;;;;;;;7.62;56.30;99954.81;8383061;28;20239;-81
2021/12/17 18:28:47;;;;;;;21.63;19.33;;;;;;;7.64;56.27;99960.81;8390559;28;20238;-81
2021/12/17 18:32:53;;;;;;;26.27;23.47;;;;;;;7.54;55.57;99950.50;8384438;28;20237;-80
2021/12/17 18:36:58;;;;;;;32.17;27.23;;;;;;;7.49;55.58;99959.97;8381899;28;20235;-80
2021/12/17 18:41:07;;;;;;;25.57;22.87;;;;;;;7.48;55.67;99979.72;8381697;28;20254;-80
2021/12/17 18:45:10;;;;;;;30.57;26.30;;;;;;;7.51;55.84;99966.00;8381947;28;20231;-79
2021/12/17 18:49:13;;;;;;;28.30;22.60;;;;;;;10.11;61.61;99970.72;8381179;28;20227;-69
2021/12/17 18:53:18;;;;;;;31.40;26.17;;;;;;;10.88;54.04;99971.53;8380714;28;20243;-69
2021/12/17 18:57:21;;;;;;;55.10;49.07;;;;;;;9.95;49.24;99967.41;8381313;28;20231;-80
2021/12/17 19:01:24;;;;;;;25.13;22.53;;;;;;;8.90;51.45;99979.44;8381335;28;20550;-81
2021/12/17 19:05:27;;;;;;;29.73;24.50;;;;;;;8.33;52.49;99977.91;8380594;28;20231;-81
2021/12/17 19:09:32;;;;;;;23.10;20.47;;;;;;;8.16;52.48;99972.78;8381349;28;20231;-81
2021/12/17 19:13:35;;;;;;;18.57;16.73;;;;;;;8.02;53.11;99984.88;8381262;28;20227;-82
2021/12/17 19:17:38;;;;;;;16.57;14.97;;;;;;;7.78;53.07;99984.03;8381347;28;20227;-81
2021/12/17 19:21:53;;;;;;;19.27;17.17;;;;;;;7.61;53.86;99998.66;8381045;28;20312;-82
2021/12/17 19:25:58;;;;;;;22.37;20.07;;;;;;;7.44;54.15;99996.06;8381049;28;20410;-79
2021/12/17 19:30:09;;;;;;;23.77;21.30;;;;;;;7.49;54.54;99993.50;8388115;28;20234;-80
2021/12/17 19:34:13;;;;;;;18.83;16.83;;;;;;;7.49;55.00;99999.50;8413859;28;20422;-80
2021/12/17 19:38:15;;;;;;;17.93;16.13;;;;;;;7.43;54.56;99984.91;8413745;28;20243;-81
2021/12/17 19:42:20;;;;;;;16.80;14.50;;;;;;;7.32;55.67;99989.19;8413942;28;20238;-80
2021/12/17 19:46:25;;;;;;;15.10;13.50;;;;;;;7.35;55.53;99993.47;8414451;28;20557;-82
2021/12/17 19:50:30;;;;;;;13.43;12.13;;;;;;;7.40;55.48;99994.34;8370750;28;20561;-82
2021/12/17 19:54:34;;;;;;;13.03;11.73;;;;;;;7.26;55.90;99990.91;8347318;28;20278;-82
2021/12/17 19:58:39;;;;;;;13.97;12.57;;;;;;;7.39;55.75;99997.78;8347397;28;20231;-82
2021/12/17 20:02:45;;;;;;;13.10;11.90;;;;;;;7.24;55.95;99998.63;8349404;28;20232;-82
2021/12/17 20:06:48;;;;;;;14.80;13.40;;;;;;;7.19;56.10;99996.03;8353879;28;20558;-82
2021/12/17 20:10:51;;;;;;;18.60;16.77;;;;;;;7.30;56.52;99997.78;8353466;28;20238;-82
2021/12/17 20:14:55;;;;;;;19.30;17.40;;;;;;;7.36;56.36;99990.03;8353548;28;20236;-82
2021/12/17 20:18:58;;;;;;;22.90;20.60;;;;;;;7.30;56.15;99995.19;8353619;28;20557;-82
2021/12/17 20:23:01;;;;;;;17.63;15.83;;;;;;;7.35;56.27;100003.78;8353273;28;20236;-82
2021/12/17 20:27:09;;;;;;;16.37;14.77;;;;;;;7.33;56.66;100005.50;8353234;28;20238;-82
2021/12/17 20:31:13;;;;;;;16.20;14.60;;;;;;;7.36;56.63;99997.78;8376310;28;20227;-81
2021/12/17 20:35:21;;;;;;;16.40;14.77;;;;;;;7.31;56.62;100002.06;8386018;28;20542;-82
2021/12/17 20:39:24;;;;;;;17.30;15.53;;;;;;;7.43;56.99;100004.66;8385571;28;20243;-81
2021/12/17 20:43:36;;;;;;;17.10;15.37;;;;;;;7.41;57.28;100002.09;8385483;28;20239;-81
2021/12/17 20:47:41;;;;;;;17.70;15.90;;;;;;;7.40;56.96;99991.75;8385611;28;20238;-81
2021/12/17 20:51:45;;;;;;;17.37;15.57;;;;;;;7.41;57.68;99988.34;8385795;28;20595;-80
2021/12/17 20:55:48;;;;;;;21.13;18.87;;;;;;;7.50;57.25;100002.94;8385663;28;20397;-78
2021/12/17 20:59:51;;;;;;;17.13;15.33;;;;;;;7.47;57.23;100008.97;8385208;28;20239;-77
2021/12/17 21:03:57;;;;;;;20.20;18.20;;;;;;;7.46;57.15;100011.53;8384978;28;20303;-80
2021/12/17 21:08:03;;;;;;;25.00;22.40;;;;;;;7.41;57.99;100007.22;8385511;28;20231;-84
2021/12/17 21:12:08;;;;;;;26.47;23.50;;;;;;;7.34;57.71;100013.22;8384847;28;20258;-82
2021/12/17 21:16:11;;;;;;;21.70;19.60;;;;;;;7.53;57.60;100019.28;8383971;28;20510;-82
2021/12/17 21:20:18;;;;;;;19.93;17.97;;;;;;;7.59;57.41;100021.84;8376259;28;20498;-81
2021/12/17 21:24:23;;;;;;;20.17;18.17;;;;;;;7.47;57.57;100008.97;8384783;28;20265;-81
2021/12/17 21:28:26;;;;;;;21.70;19.50;;;;;;;7.61;57.33;100009.81;8384176;28;20243;-80